sensor_id;sensor_type;location;lat;lon;timestamp;pressure;altitude;pressure_sealevel;temperature;humidity
57827;BME280;43656;57.746;11.780;2023-01-30T00:00:51;99037.06;;;8.68;96.93
57827;BME280;43656;57.746;11.780;2023-01-30T00:03:17;99042.47;;;8.50;96.50
57827;BME280;43656;57.746;11.780;2023-01-30T00:05:42;99038.44;;;8.59;96.36
57827;BME280;43656;57.746;11.780;2023-01-30T00:08:07;99018.50;;;8.55;96.52
57827;BME280;43656;57.746;11.780;2023-01-30T00:10:33;99026.09;;;8.58;95.86
57827;BME280;43656;57.746;11.780;2023-01-30T00:12:58;99023.97;;;8.60;95.22
57827;BME280;43656;57.746;11.780;2023-01-30T00:15:24;99021.75;;;8.57;95.64
57827;BME280;43656;57.746;11.780;2023-01-30T00:17:49;99017.19;;;8.57;95.26
57827;BME280;43656;57.746;11.780;2023-01-30T00:20:14;99015.66;;;8.38;95.59
57827;BME280;43656;57.746;11.780;2023-01-30T00:22:40;99023.28;;;8.34;94.86
57827;BME280;43656;57.746;11.780;2023-01-30T00:25:06;99010.22;;;8.44;94.63
57827;BME280;43656;57.746;11.780;2023-01-30T00:27:31;99013.91;;;8.43;94.10
57827;BME280;43656;57.746;11.780;2023-01-30T00:29:56;99005.59;;;8.33;93.32
57827;BME280;43656;57.746;11.780;2023-01-30T00:32:22;99013.78;;;8.38;92.70
57827;BME280;43656;57.746;11.780;2023-01-30T00:34:50;99006.00;;;8.18;92.98
57827;BME280;43656;57.746;11.780;2023-01-30T00:37:16;99021.28;;;8.18;92.42
57827;BME280;43656;57.746;11.780;2023-01-30T00:39:41;99016.41;;;8.27;90.83
57827;BME280;43656;57.746;11.780;2023-01-30T00:42:08;98984.97;;;8.04;88.89
57827;BME280;43656;57.746;11.780;2023-01-30T00:44:52;99007.78;;;8.24;86.72
57827;BME280;43656;57.746;11.780;2023-01-30T00:47:36;98996.28;;;8.06;87.29
57827;BME280;43656;57.746;11.780;2023-01-30T00:50:02;98996.41;;;8.11;86.29
57827;BME280;43656;57.746;11.780;2023-01-30T00:52:27;99008.09;;;8.16;86.00
57827;BME280;43656;57.746;11.780;2023-01-30T00:54:53;99000.78;;;8.23;85.07
57827;BME280;43656;57.746;11.780;2023-01-30T00:57:18;98991.09;;;8.22;85.32
57827;BME280;43656;57.746;11.780;2023-01-30T00:59:44;98974.78;;;8.12;85.36
57827;BME280;43656;57.746;11.780;2023-01-30T01:02:09;99002.63;;;8.11;86.05
57827;BME280;43656;57.746;11.780;2023-01-30T01:04:34;98992.91;;;8.10;84.75
57827;BME280;43656;57.746;11.780;2023-01-30T01:07:08;98989.88;;;8.07;85.23
57827;BME280;43656;57.746;11.780;2023-01-30T01:09:34;98986.25;;;8.01;84.50
57827;BME280;43656;57.746;11.780;2023-01-30T01:11:59;98975.34;;;8.14;84.26
57827;BME280;43656;57.746;11.780;2023-01-30T01:14:25;98973.06;;;8.30;83.53
57827;BME280;43656;57.746;11.780;2023-01-30T01:16:50;98978.31;;;8.24;83.59
57827;BME280;43656;57.746;11.780;2023-01-30T01:19:15;98973.88;;;8.30;84.83
57827;BME280;43656;57.746;11.780;2023-01-30T01:21:41;98969.44;;;8.24;84.56
57827;BME280;43656;57.746;11.780;2023-01-30T01:24:11;98968.25;;;8.08;85.97
57827;BME280;43656;57.746;11.780;2023-01-30T01:26:36;98958.63;;;7.89;86.19
57827;BME280;43656;57.746;11.780;2023-01-30T01:29:02;98970.22;;;8.13;84.74
57827;BME280;43656;57.746;11.780;2023-01-30T01:31:28;98952.81;;;7.92;84.77
57827;BME280;43656;57.746;11.780;2023-01-30T01:33:53;98982.00;;;8.12;84.69
57827;BME280;43656;57.746;11.780;2023-01-30T01:36:18;98973.34;;;8.10;83.91
57827;BME280;43656;57.746;11.780;2023-01-30T01:38:44;98972.22;;;8.17;84.16
57827;BME280;43656;57.746;11.780;2023-01-30T01:41:12;98949.69;;;8.07;83.82
57827;BME280;43656;57.746;11.780;2023-01-30T01:44:05;98960.75;;;7.98;83.73
57827;BME280;43656;57.746;11.780;2023-01-30T01:46:53;98963.34;;;8.05;83.25
57827;BME280;43656;57.746;11.780;2023-01-30T01:49:27;98958.00;;;8.17;83.25
57827;BME280;43656;57.746;11.780;2023-01-30T01:52:00;98939.09;;;8.00;84.31
57827;BME280;43656;57.746;11.780;2023-01-30T01:57:05;98971.47;;;7.98;85.17
57827;BME280;43656;57.746;11.780;2023-01-30T01:59:43;98959.38;;;8.08;85.09
57827;BME280;43656;57.746;11.780;2023-01-30T02:02:11;98962.63;;;8.10;84.04
57827;BME280;43656;57.746;11.780;2023-01-30T02:04:42;98949.03;;;8.11;83.75
57827;BME280;43656;57.746;11.780;2023-01-30T02:09:57;98951.56;;;8.06;84.92
57827;BME280;43656;57.746;11.780;2023-01-30T02:12:24;98956.66;;;7.96;85.80
57827;BME280;43656;57.746;11.780;2023-01-30T02:14:50;98938.50;;;7.98;84.93
57827;BME280;43656;57.746;11.780;2023-01-30T02:17:16;98937.72;;;8.21;84.47
57827;BME280;43656;57.746;11.780;2023-01-30T02:20:12;98925.75;;;8.12;83.94
57827;BME280;43656;57.746;11.780;2023-01-30T02:25:55;98925.94;;;8.10;83.61
57827;BME280;43656;57.746;11.780;2023-01-30T02:33:51;98896.66;;;7.85;82.56
57827;BME280;43656;57.746;11.780;2023-01-30T02:36:28;98918.72;;;7.99;82.01
57827;BME280;43656;57.746;11.780;2023-01-30T02:39:08;98916.03;;;8.11;80.64
57827;BME280;43656;57.746;11.780;2023-01-30T02:44:28;98910.69;;;8.11;79.16
57827;BME280;43656;57.746;11.780;2023-01-30T02:46:59;98899.16;;;7.98;79.69
57827;BME280;43656;57.746;11.780;2023-01-30T02:49:35;98907.59;;;7.84;79.47
57827;BME280;43656;57.746;11.780;2023-01-30T02:52:04;98879.41;;;7.81;78.48
57827;BME280;43656;57.746;11.780;2023-01-30T02:54:31;98897.59;;;7.91;78.81
57827;BME280;43656;57.746;11.780;2023-01-30T02:56:57;98907.91;;;8.06;78.47
57827;BME280;43656;57.746;11.780;2023-01-30T02:59:36;98894.09;;;7.90;79.19
57827;BME280;43656;57.746;11.780;2023-01-30T03:05:19;98919.97;;;7.96;80.96
57827;BME280;43656;57.746;11.780;2023-01-30T03:15:32;98903.28;;;7.83;79.30
57827;BME280;43656;57.746;11.780;2023-01-30T03:18:00;98908.91;;;7.93;79.08
57827;BME280;43656;57.746;11.780;2023-01-30T03:20:27;98904.25;;;7.88;79.71
57827;BME280;43656;57.746;11.780;2023-01-30T03:22:53;98898.38;;;7.80;79.12
57827;BME280;43656;57.746;11.780;2023-01-30T03:25:22;98892.38;;;7.96;79.30
57827;BME280;43656;57.746;11.780;2023-01-30T03:27:51;98858.88;;;7.63;79.51
57827;BME280;43656;57.746;11.780;2023-01-30T03:30:18;98873.59;;;7.84;79.49
57827;BME280;43656;57.746;11.780;2023-01-30T03:32:44;98859.91;;;7.62;80.79
57827;BME280;43656;57.746;11.780;2023-01-30T03:35:09;98861.13;;;7.78;80.51
57827;BME280;43656;57.746;11.780;2023-01-30T03:37:35;98865.19;;;7.69;80.69
57827;BME280;43656;57.746;11.780;2023-01-30T03:40:01;98867.75;;;7.75;80.44
57827;BME280;43656;57.746;11.780;2023-01-30T03:42:27;98869.34;;;7.65;81.55
57827;BME280;43656;57.746;11.780;2023-01-30T03:44:52;98866.66;;;7.65;82.35
57827;BME280;43656;57.746;11.780;2023-01-30T03:47:18;98874.03;;;7.81;81.51
57827;BME280;43656;57.746;11.780;2023-01-30T03:49:43;98874.22;;;7.68;82.57
57827;BME280;43656;57.746;11.780;2023-01-30T03:52:09;98868.88;;;7.68;82.23
57827;BME280;43656;57.746;11.780;2023-01-30T03:54:34;98881.25;;;7.69;82.37
57827;BME280;43656;57.746;11.780;2023-01-30T03:56:59;98864.50;;;7.73;81.83
57827;BME280;43656;57.746;11.780;2023-01-30T03:59:25;98871.50;;;7.86;82.37
57827;BME280;43656;57.746;11.780;2023-01-30T04:01:51;98883.72;;;7.82;82.52
57827;BME280;43656;57.746;11.780;2023-01-30T04:04:17;98853.69;;;7.50;80.95
57827;BME280;43656;57.746;11.780;2023-01-30T04:06:42;98836.28;;;7.59;80.18
57827;BME280;43656;57.746;11.780;2023-01-30T04:09:08;98841.84;;;7.58;79.21
57827;BME280;43656;57.746;11.780;2023-01-30T04:11:33;98839.88;;;7.53;79.06
57827;BME280;43656;57.746;11.780;2023-01-30T04:13:58;98824.72;;;7.47;78.05
57827;BME280;43656;57.746;11.780;2023-01-30T04:16:25;98805.69;;;7.55;77.39
57827;BME280;43656;57.746;11.780;2023-01-30T04:18:52;98805.47;;;7.38;77.84
57827;BME280;43656;57.746;11.780;2023-01-30T04:21:18;98802.41;;;7.53;76.57
57827;BME280;43656;57.746;11.780;2023-01-30T04:23:44;98784.41;;;7.30;76.70
57827;BME280;43656;57.746;11.780;2023-01-30T04:26:10;98796.25;;;7.52;76.56
57827;BME280;43656;57.746;11.780;2023-01-30T04:28:38;98775.13;;;7.44;76.20
57827;BME280;43656;57.746;11.780;2023-01-30T04:31:04;98783.88;;;7.40;76.68
57827;BME280;43656;57.746;11.780;2023-01-30T04:33:29;98790.81;;;7.29;76.10
57827;BME280;43656;57.746;11.780;2023-01-30T04:35:59;98795.44;;;7.52;75.84
57827;BME280;43656;57.746;11.780;2023-01-30T04:38:26;98791.09;;;7.39;76.38
57827;BME280;43656;57.746;11.780;2023-01-30T04:40:54;98800.47;;;7.30;76.67
57827;BME280;43656;57.746;11.780;2023-01-30T04:43:21;98805.47;;;7.38;76.05
57827;BME280;43656;57.746;11.780;2023-01-30T04:45:48;98805.28;;;7.51;76.73
57827;BME280;43656;57.746;11.780;2023-01-30T04:48:14;98805.06;;;7.53;77.45
57827;BME280;43656;57.746;11.780;2023-01-30T04:50:41;98797.41;;;7.57;77.86
57827;BME280;43656;57.746;11.780;2023-01-30T04:53:07;98783.13;;;7.63;77.99
57827;BME280;43656;57.746;11.780;2023-01-30T04:55:33;98784.16;;;7.62;78.66
57827;BME280;43656;57.746;11.780;2023-01-30T04:57:59;98757.25;;;7.57;79.06
57827;BME280;43656;57.746;11.780;2023-01-30T05:00:25;98770.41;;;7.58;79.51
57827;BME280;43656;57.746;11.780;2023-01-30T05:02:51;98768.72;;;7.75;79.93
57827;BME280;43656;57.746;11.780;2023-01-30T05:05:18;98773.56;;;7.67;80.91
57827;BME280;43656;57.746;11.780;2023-01-30T05:07:43;98787.75;;;7.67;81.79
57827;BME280;43656;57.746;11.780;2023-01-30T05:10:09;98771.59;;;7.74;81.62
57827;BME280;43656;57.746;11.780;2023-01-30T05:12:35;98761.34;;;7.71;82.32
57827;BME280;43656;57.746;11.780;2023-01-30T05:15:01;98757.00;;;7.46;82.56
57827;BME280;43656;57.746;11.780;2023-01-30T05:17:26;98768.91;;;7.74;81.97
57827;BME280;43656;57.746;11.780;2023-01-30T05:19:51;98757.28;;;7.68;81.17
57827;BME280;43656;57.746;11.780;2023-01-30T05:22:17;98756.75;;;7.48;81.25
57827;BME280;43656;57.746;11.780;2023-01-30T05:24:42;98740.06;;;7.76;80.32
57827;BME280;43656;57.746;11.780;2023-01-30T05:27:08;98756.22;;;7.58;81.51
57827;BME280;43656;57.746;11.780;2023-01-30T05:29:33;98739.69;;;7.49;81.49
57827;BME280;43656;57.746;11.780;2023-01-30T05:31:59;98750.38;;;7.49;81.85
57827;BME280;43656;57.746;11.780;2023-01-30T05:34:24;98713.59;;;7.44;81.07
57827;BME280;43656;57.746;11.780;2023-01-30T05:36:49;98740.81;;;7.41;81.39
57827;BME280;43656;57.746;11.780;2023-01-30T05:39:15;98725.78;;;7.28;81.79
57827;BME280;43656;57.746;11.780;2023-01-30T05:41:40;98753.78;;;7.56;80.78
57827;BME280;43656;57.746;11.780;2023-01-30T05:44:06;98763.78;;;7.49;81.32
57827;BME280;43656;57.746;11.780;2023-01-30T05:46:31;98758.63;;;7.47;81.06
57827;BME280;43656;57.746;11.780;2023-01-30T05:48:57;98766.19;;;7.50;81.07
57827;BME280;43656;57.746;11.780;2023-01-30T05:51:24;98754.06;;;7.36;81.12
57827;BME280;43656;57.746;11.780;2023-01-30T05:53:50;98743.72;;;7.40;80.72
57827;BME280;43656;57.746;11.780;2023-01-30T05:56:16;98756.88;;;7.41;80.36
57827;BME280;43656;57.746;11.780;2023-01-30T05:58:42;98746.50;;;7.45;79.84
57827;BME280;43656;57.746;11.780;2023-01-30T06:01:10;98753.28;;;7.47;79.77
57827;BME280;43656;57.746;11.780;2023-01-30T06:03:36;98746.50;;;7.33;80.29
57827;BME280;43656;57.746;11.780;2023-01-30T06:06:03;98746.63;;;7.38;80.54
57827;BME280;43656;57.746;11.780;2023-01-30T06:08:30;98755.03;;;7.53;80.74
57827;BME280;43656;57.746;11.780;2023-01-30T06:11:03;98752.72;;;7.45;81.50
57827;BME280;43656;57.746;11.780;2023-01-30T06:13:30;98762.31;;;7.35;82.20
57827;BME280;43656;57.746;11.780;2023-01-30T06:15:56;98773.53;;;7.43;81.32
57827;BME280;43656;57.746;11.780;2023-01-30T06:18:21;98781.38;;;7.26;82.39
57827;BME280;43656;57.746;11.780;2023-01-30T06:20:47;98778.00;;;7.31;82.48
57827;BME280;43656;57.746;11.780;2023-01-30T06:23:13;98767.44;;;7.36;82.15
57827;BME280;43656;57.746;11.780;2023-01-30T06:25:42;98773.88;;;7.47;82.57
57827;BME280;43656;57.746;11.780;2023-01-30T06:28:08;98769.72;;;7.63;82.22
57827;BME280;43656;57.746;11.780;2023-01-30T06:30:33;98780.28;;;7.58;83.05
57827;BME280;43656;57.746;11.780;2023-01-30T06:32:59;98767.50;;;7.60;84.01
57827;BME280;43656;57.746;11.780;2023-01-30T06:35:25;98776.16;;;7.73;83.69
57827;BME280;43656;57.746;11.780;2023-01-30T06:37:50;98761.81;;;7.56;84.32
57827;BME280;43656;57.746;11.780;2023-01-30T06:40:16;98739.44;;;7.50;84.16
57827;BME280;43656;57.746;11.780;2023-01-30T06:42:46;98774.53;;;7.72;84.10
57827;BME280;43656;57.746;11.780;2023-01-30T06:45:13;98769.97;;;7.73;83.28
57827;BME280;43656;57.746;11.780;2023-01-30T06:47:46;98756.03;;;7.83;82.40
57827;BME280;43656;57.746;11.780;2023-01-30T06:50:13;98768.88;;;7.50;83.62
57827;BME280;43656;57.746;11.780;2023-01-30T06:52:43;98761.31;;;7.47;83.49
57827;BME280;43656;57.746;11.780;2023-01-30T06:55:10;98754.44;;;7.51;82.30
57827;BME280;43656;57.746;11.780;2023-01-30T06:57:36;98753.03;;;7.37;81.44
57827;BME280;43656;57.746;11.780;2023-01-30T07:00:06;98758.06;;;7.45;81.30
57827;BME280;43656;57.746;11.780;2023-01-30T07:02:33;98765.34;;;7.38;81.22
57827;BME280;43656;57.746;11.780;2023-01-30T07:05:04;98761.59;;;7.27;81.77
57827;BME280;43656;57.746;11.780;2023-01-30T07:07:31;98774.03;;;7.64;80.39
57827;BME280;43656;57.746;11.780;2023-01-30T07:09:57;98782.84;;;7.52;81.31
57827;BME280;43656;57.746;11.780;2023-01-30T07:12:23;98782.97;;;7.16;81.69
57827;BME280;43656;57.746;11.780;2023-01-30T07:14:50;98769.22;;;7.42;80.57
57827;BME280;43656;57.746;11.780;2023-01-30T07:17:16;98768.41;;;7.42;80.79
57827;BME280;43656;57.746;11.780;2023-01-30T07:19:42;98741.47;;;7.25;80.42
57827;BME280;43656;57.746;11.780;2023-01-30T07:22:07;98760.13;;;7.43;80.50
57827;BME280;43656;57.746;11.780;2023-01-30T07:24:33;98757.47;;;7.43;80.43
57827;BME280;43656;57.746;11.780;2023-01-30T07:26:58;98763.59;;;7.32;80.94
57827;BME280;43656;57.746;11.780;2023-01-30T07:29:24;98767.22;;;7.38;81.58
57827;BME280;43656;57.746;11.780;2023-01-30T07:31:50;98727.53;;;7.23;81.56
57827;BME280;43656;57.746;11.780;2023-01-30T07:34:16;98765.19;;;7.21;82.34
57827;BME280;43656;57.746;11.780;2023-01-30T07:36:41;98779.38;;;7.22;82.41
57827;BME280;43656;57.746;11.780;2023-01-30T07:39:07;98776.75;;;7.34;82.13
57827;BME280;43656;57.746;11.780;2023-01-30T07:41:34;98775.78;;;7.28;82.19
57827;BME280;43656;57.746;11.780;2023-01-30T07:43:59;98767.41;;;7.24;82.61
57827;BME280;43656;57.746;11.780;2023-01-30T07:46:25;98767.13;;;7.44;81.73
57827;BME280;43656;57.746;11.780;2023-01-30T07:48:51;98760.28;;;7.48;81.64
57827;BME280;43656;57.746;11.780;2023-01-30T07:51:16;98764.53;;;7.38;81.73
57827;BME280;43656;57.746;11.780;2023-01-30T07:53:42;98764.09;;;7.41;81.67
57827;BME280;43656;57.746;11.780;2023-01-30T07:56:09;98757.50;;;7.25;82.64
57827;BME280;43656;57.746;11.780;2023-01-30T07:58:35;98756.59;;;7.31;82.32
57827;BME280;43656;57.746;11.780;2023-01-30T08:01:00;98758.34;;;7.25;81.78
57827;BME280;43656;57.746;11.780;2023-01-30T08:03:25;98787.00;;;7.37;81.63
57827;BME280;43656;57.746;11.780;2023-01-30T08:05:51;98795.13;;;7.30;81.38
57827;BME280;43656;57.746;11.780;2023-01-30T08:08:18;98796.78;;;7.43;81.05
57827;BME280;43656;57.746;11.780;2023-01-30T08:10:43;98791.00;;;7.58;80.98
57827;BME280;43656;57.746;11.780;2023-01-30T08:13:09;98776.56;;;7.47;81.08
57827;BME280;43656;57.746;11.780;2023-01-30T08:15:35;98767.72;;;7.46;81.62
57827;BME280;43656;57.746;11.780;2023-01-30T08:18:00;98757.97;;;7.52;81.41
57827;BME280;43656;57.746;11.780;2023-01-30T08:20:26;98766.19;;;7.50;81.86
57827;BME280;43656;57.746;11.780;2023-01-30T08:22:52;98775.91;;;7.63;81.70
57827;BME280;43656;57.746;11.780;2023-01-30T08:25:19;98758.78;;;7.64;81.73
57827;BME280;43656;57.746;11.780;2023-01-30T08:27:46;98755.75;;;7.61;81.90
57827;BME280;43656;57.746;11.780;2023-01-30T08:30:12;98760.66;;;7.64;81.56
57827;BME280;43656;57.746;11.780;2023-01-30T08:32:37;98764.03;;;7.71;81.25
57827;BME280;43656;57.746;11.780;2023-01-30T08:35:03;98776.88;;;7.92;80.00
57827;BME280;43656;57.746;11.780;2023-01-30T08:37:28;98776.38;;;7.72;80.38
57827;BME280;43656;57.746;11.780;2023-01-30T08:39:54;98785.78;;;7.74;80.46
57827;BME280;43656;57.746;11.780;2023-01-30T08:42:19;98782.41;;;7.67;80.64
57827;BME280;43656;57.746;11.780;2023-01-30T08:44:44;98790.22;;;7.81;79.76
57827;BME280;43656;57.746;11.780;2023-01-30T08:47:10;98799.53;;;7.78;80.27
57827;BME280;43656;57.746;11.780;2023-01-30T08:49:35;98804.19;;;7.71;80.67
57827;BME280;43656;57.746;11.780;2023-01-30T08:52:00;98806.66;;;7.72;79.85
57827;BME280;43656;57.746;11.780;2023-01-30T08:54:26;98800.94;;;7.81;79.16
57827;BME280;43656;57.746;11.780;2023-01-30T08:56:51;98804.88;;;7.78;78.98
57827;BME280;43656;57.746;11.780;2023-01-30T08:59:17;98809.06;;;7.74;79.83
57827;BME280;43656;57.746;11.780;2023-01-30T09:01:42;98814.06;;;7.59;79.44
57827;BME280;43656;57.746;11.780;2023-01-30T09:04:08;98812.41;;;7.58;78.92
57827;BME280;43656;57.746;11.780;2023-01-30T09:06:33;98814.69;;;7.84;78.00
57827;BME280;43656;57.746;11.780;2023-01-30T09:08:59;98817.16;;;7.86;78.47
57827;BME280;43656;57.746;11.780;2023-01-30T09:11:24;98812.91;;;7.66;79.63
57827;BME280;43656;57.746;11.780;2023-01-30T09:13:50;98814.13;;;7.82;79.59
57827;BME280;43656;57.746;11.780;2023-01-30T09:16:15;98810.53;;;8.00;78.92
57827;BME280;43656;57.746;11.780;2023-01-30T09:18:42;98808.31;;;7.85;79.99
57827;BME280;43656;57.746;11.780;2023-01-30T09:21:09;98792.69;;;7.94;81.10
57827;BME280;43656;57.746;11.780;2023-01-30T09:23:35;98783.50;;;8.13;80.67
57827;BME280;43656;57.746;11.780;2023-01-30T09:26:02;98785.50;;;8.18;81.73
57827;BME280;43656;57.746;11.780;2023-01-30T09:28:28;98764.66;;;8.20;80.53
57827;BME280;43656;57.746;11.780;2023-01-30T09:30:57;98762.56;;;7.98;81.01
57827;BME280;43656;57.746;11.780;2023-01-30T09:33:23;98763.13;;;8.24;79.96
57827;BME280;43656;57.746;11.780;2023-01-30T09:35:49;98774.31;;;8.21;79.11
57827;BME280;43656;57.746;11.780;2023-01-30T09:38:15;98781.75;;;8.31;79.54
57827;BME280;43656;57.746;11.780;2023-01-30T09:41:34;98803.22;;;8.42;79.54
57827;BME280;43656;57.746;11.780;2023-01-30T09:49:07;98808.06;;;7.87;78.52
57827;BME280;43656;57.746;11.780;2023-01-30T09:54:21;98809.84;;;8.05;77.59
57827;BME280;43656;57.746;11.780;2023-01-30T09:56:56;98811.47;;;8.06;78.91
57827;BME280;43656;57.746;11.780;2023-01-30T09:59:29;98805.38;;;7.75;79.59
57827;BME280;43656;57.746;11.780;2023-01-30T10:02:09;98819.47;;;7.82;79.91
57827;BME280;43656;57.746;11.780;2023-01-30T10:04:44;98795.94;;;7.72;78.76
57827;BME280;43656;57.746;11.780;2023-01-30T10:07:19;98778.44;;;7.58;78.16
57827;BME280;43656;57.746;11.780;2023-01-30T10:10:09;98808.63;;;7.65;79.20
57827;BME280;43656;57.746;11.780;2023-01-30T10:15:21;98812.75;;;7.61;78.39
57827;BME280;43656;57.746;11.780;2023-01-30T10:20:57;98842.56;;;7.65;78.79
57827;BME280;43656;57.746;11.780;2023-01-30T10:26:25;98852.09;;;7.61;79.11
57827;BME280;43656;57.746;11.780;2023-01-30T10:31:21;98848.41;;;7.62;78.56
57827;BME280;43656;57.746;11.780;2023-01-30T10:34:05;98858.41;;;7.66;78.82
57827;BME280;43656;57.746;11.780;2023-01-30T10:37:01;98848.22;;;7.87;78.88
57827;BME280;43656;57.746;11.780;2023-01-30T10:42:14;98845.53;;;7.87;77.55
57827;BME280;43656;57.746;11.780;2023-01-30T10:44:45;98865.00;;;7.82;77.08
57827;BME280;43656;57.746;11.780;2023-01-30T10:49:43;98855.00;;;7.89;75.28
57827;BME280;43656;57.746;11.780;2023-01-30T10:52:14;98860.41;;;7.71;75.89
57827;BME280;43656;57.746;11.780;2023-01-30T10:57:52;98862.63;;;7.74;75.66
57827;BME280;43656;57.746;11.780;2023-01-30T11:00:36;98851.66;;;7.64;76.13
57827;BME280;43656;57.746;11.780;2023-01-30T11:03:13;98749.56;;;7.06;76.71
57827;BME280;43656;57.746;11.780;2023-01-30T11:05:52;98865.66;;;7.77;77.17
57827;BME280;43656;57.746;11.780;2023-01-30T11:10:44;98886.41;;;7.82;77.80
57827;BME280;43656;57.746;11.780;2023-01-30T11:13:16;98886.88;;;7.79;77.52
57827;BME280;43656;57.746;11.780;2023-01-30T11:15:44;98889.91;;;7.83;77.16
57827;BME280;43656;57.746;11.780;2023-01-30T11:18:11;98891.31;;;7.85;77.65
57827;BME280;43656;57.746;11.780;2023-01-30T11:20:42;98876.41;;;7.89;77.79
57827;BME280;43656;57.746;11.780;2023-01-30T11:23:30;98853.00;;;7.54;78.39
57827;BME280;43656;57.746;11.780;2023-01-30T11:25:57;98873.78;;;7.71;78.30
57827;BME280;43656;57.746;11.780;2023-01-30T11:28:25;98853.66;;;7.68;77.89
57827;BME280;43656;57.746;11.780;2023-01-30T11:30:59;98880.91;;;7.77;78.73
57827;BME280;43656;57.746;11.780;2023-01-30T11:33:33;98891.03;;;7.75;79.40
57827;BME280;43656;57.746;11.780;2023-01-30T11:36:04;98897.31;;;7.69;80.23
57827;BME280;43656;57.746;11.780;2023-01-30T11:38:32;98907.50;;;7.60;79.74
57827;BME280;43656;57.746;11.780;2023-01-30T11:43:35;98886.16;;;7.84;79.27
57827;BME280;43656;57.746;11.780;2023-01-30T11:46:05;98886.19;;;7.53;80.58
57827;BME280;43656;57.746;11.780;2023-01-30T11:48:33;98915.06;;;7.82;80.31
57827;BME280;43656;57.746;11.780;2023-01-30T11:51:03;98904.78;;;7.79;79.80
57827;BME280;43656;57.746;11.780;2023-01-30T11:53:36;98921.06;;;7.77;79.81
57827;BME280;43656;57.746;11.780;2023-01-30T11:56:14;98925.25;;;7.73;79.49
57827;BME280;43656;57.746;11.780;2023-01-30T11:58:42;98949.78;;;7.70;78.89
57827;BME280;43656;57.746;11.780;2023-01-30T12:01:13;98936.16;;;7.71;78.57
57827;BME280;43656;57.746;11.780;2023-01-30T12:03:46;98951.75;;;7.63;78.26
57827;BME280;43656;57.746;11.780;2023-01-30T12:06:23;98946.84;;;7.60;78.74
57827;BME280;43656;57.746;11.780;2023-01-30T12:08:53;98965.41;;;7.54;78.77
57827;BME280;43656;57.746;11.780;2023-01-30T12:14:20;98953.00;;;7.60;76.36
57827;BME280;43656;57.746;11.780;2023-01-30T12:28:09;98980.22;;;7.75;77.58
57827;BME280;43656;57.746;11.780;2023-01-30T12:30:41;98966.31;;;7.67;78.35
57827;BME280;43656;57.746;11.780;2023-01-30T12:33:12;98960.50;;;7.70;78.29
57827;BME280;43656;57.746;11.780;2023-01-30T12:36:06;98976.25;;;7.78;78.55
57827;BME280;43656;57.746;11.780;2023-01-30T12:52:38;99000.59;;;8.07;77.59
57827;BME280;43656;57.746;11.780;2023-01-30T12:57:53;99007.66;;;8.01;78.23
57827;BME280;43656;57.746;11.780;2023-01-30T13:05:43;99032.47;;;7.96;78.70
57827;BME280;43656;57.746;11.780;2023-01-30T13:13:17;99060.81;;;7.86;76.98
57827;BME280;43656;57.746;11.780;2023-01-30T13:26:04;99080.94;;;7.51;75.14
57827;BME280;43656;57.746;11.780;2023-01-30T13:28:36;99079.84;;;7.59;74.27
57827;BME280;43656;57.746;11.780;2023-01-30T13:31:05;99095.63;;;7.67;74.44
57827;BME280;43656;57.746;11.780;2023-01-30T13:33:34;99106.81;;;7.58;75.46
57827;BME280;43656;57.746;11.780;2023-01-30T13:36:11;99107.84;;;7.82;75.97
57827;BME280;43656;57.746;11.780;2023-01-30T13:38:44;99118.03;;;7.91;76.96
57827;BME280;43656;57.746;11.780;2023-01-30T13:41:14;99115.94;;;7.75;77.45
57827;BME280;43656;57.746;11.780;2023-01-30T13:43:46;99129.41;;;7.87;76.88
57827;BME280;43656;57.746;11.780;2023-01-30T13:46:18;99141.38;;;7.84;75.88
57827;BME280;43656;57.746;11.780;2023-01-30T13:57:10;99159.47;;;7.45;74.46
57827;BME280;43656;57.746;11.780;2023-01-30T14:00:06;99168.94;;;7.41;74.83
57827;BME280;43656;57.746;11.780;2023-01-30T14:02:35;99182.88;;;7.50;74.57
57827;BME280;43656;57.746;11.780;2023-01-30T14:05:00;99187.63;;;7.48;75.26
57827;BME280;43656;57.746;11.780;2023-01-30T14:07:32;99181.69;;;7.46;75.01
57827;BME280;43656;57.746;11.780;2023-01-30T14:12:35;99185.28;;;7.33;72.50
57827;BME280;43656;57.746;11.780;2023-01-30T14:20:32;99204.81;;;7.34;70.56
57827;BME280;43656;57.746;11.780;2023-01-30T14:23:52;99179.59;;;7.23;70.25
57827;BME280;43656;57.746;11.780;2023-01-30T14:25:51;99233.00;;;7.36;69.73
57827;BME280;43656;57.746;11.780;2023-01-30T14:31:01;99237.50;;;7.42;68.94
57827;BME280;43656;57.746;11.780;2023-01-30T14:38:22;99237.28;;;7.44;67.28
57827;BME280;43656;57.746;11.780;2023-01-30T14:45:59;99275.78;;;7.43;67.84
57827;BME280;43656;57.746;11.780;2023-01-30T14:51:18;99286.50;;;7.43;68.89
57827;BME280;43656;57.746;11.780;2023-01-30T14:54:01;99293.56;;;7.30;69.83
57827;BME280;43656;57.746;11.780;2023-01-30T14:59:30;99322.53;;;7.40;68.23
57827;BME280;43656;57.746;11.780;2023-01-30T15:04:57;99324.81;;;7.37;69.07
57827;BME280;43656;57.746;11.780;2023-01-30T15:07:27;99319.22;;;7.38;69.29
57827;BME280;43656;57.746;11.780;2023-01-30T15:10:40;99328.31;;;7.37;68.40
57827;BME280;43656;57.746;11.780;2023-01-30T15:32:25;99387.03;;;7.25;68.23
57827;BME280;43656;57.746;11.780;2023-01-30T15:34:57;99407.59;;;7.25;69.01
57827;BME280;43656;57.746;11.780;2023-01-30T15:50:46;99443.19;;;7.32;67.19
57827;BME280;43656;57.746;11.780;2023-01-30T15:53:14;99447.28;;;7.35;67.28
57827;BME280;43656;57.746;11.780;2023-01-30T15:55:40;99437.44;;;7.28;67.77
57827;BME280;43656;57.746;11.780;2023-01-30T15:58:16;99449.56;;;7.24;68.51
57827;BME280;43656;57.746;11.780;2023-01-30T16:00:48;99416.91;;;7.16;67.94
57827;BME280;43656;57.746;11.780;2023-01-30T16:03:20;99457.59;;;7.24;67.04
57827;BME280;43656;57.746;11.780;2023-01-30T16:05:52;99487.25;;;7.23;67.44
57827;BME280;43656;57.746;11.780;2023-01-30T16:08:30;99484.34;;;7.24;67.06
57827;BME280;43656;57.746;11.780;2023-01-30T16:10:56;99494.25;;;7.24;67.44